Flight Track Log - Related Links

Times and Time Zones

All times are in EDT time to prevent confusion due to time zone crossing. See the N85JE flight status page for this flight to view local times or setup timezone preferences in your user account.

Time Position Orientation Groundspeed Altitude Reporting Facility
EDT Latitude Longitude Course Direction KTS MPH feet Rate Location/Type
Mon 12:57:41 25.9164 -80.2247 211° Southwest 224 258 2,000  Level Miami Center
Mon 12:59:20 25.9392 -80.1331 75° East 214 246 2,600 830 Climbing Miami Center
Mon 13:00:20 25.9778 -80.1847 310° West 126 145 4,200 2,100 Climbing Miami Center
Mon 13:01:20 25.9842 -80.2706 275° West 141 162 6,800 1,900 Climbing Miami Center
Mon 13:02:20 25.9944 -80.3608 277° West 235 270 8,000 800 Climbing Miami Center
Mon 13:03:00 25.9827 -80.7280 211° Southwest  Level Estimated
Mon 13:03:20 26.0028 -80.4536 276° West 284 327 8,400  Level Miami Center
Mon 13:04:20 26.0150 -80.5464 278° West 304 350 9,700 800 Climbing Miami Center
Mon 13:05:20 26.0250 -80.6439 277° West 315 362 10,000 150 Climbing Miami Center
Mon 13:06:20 26.0367 -80.7644 276° West 340 391 10,000 300 Level Miami Center
Mon 13:07:20 26.0503 -80.8711 278° West 351 404 10,600 1,200 Climbing Miami Center
Mon 13:08:20 26.0642 -80.9733 279° West 351 404 12,400 950 Climbing Miami Center
Mon 13:09:20 26.0739 -81.0756 276° West 356 410 12,500 50 Climbing Miami Center
Mon 13:10:20 26.0869 -81.2008 277° West 361 415 12,500  Level Miami Center
Mon 13:11:20 26.1003 -81.3100 278° West 368 423 12,500 -200 Level Miami Center
Mon 13:12:20 26.0969 -81.4208 268° West 362 417 12,100 -1,050 Descending Miami Center
Mon 13:13:20 26.0894 -81.5247 265° West 345 397 10,400 -2,000 Descending Miami Center
Mon 13:14:20 26.0764 -81.6097 260° West 310 357 8,100 -2,550 Descending Miami Center
Mon 13:15:20 26.0631 -81.6947 260° West 289 333 5,300 -2,800 Descending Miami Center
Mon 13:16:20 26.0731 -81.7692 279° West 246 283 2,500 -1,900 Descending Miami Center
Mon 13:17:20 26.1258 -81.7575 11° North 166 191 1,500 -600 Descending Miami Center
Mon 13:18:20 26.1581 -81.7239 43° Northeast 125 144 1,300 -400 Descending Miami Center
Mon 13:19:20 26.1758 -81.7525 305° West 94 108 700 -600 Descending Miami Center
Mon 13:21:00 26.1500 -81.7667 283° West  Level FlightAware Approximate
Mon 13:28:00 26.1524 -81.7756 283° West  Level Estimated
Mon 13:29:00 26.1524 -81.7756 283° West  Level Estimated
Mon 13:30:00 26.1524 -81.7756 283° West  Level Estimated

Login

Don't have an account? Register now (free) for customized features, flight alerts, and more!